createdAt,value
2019-01-21T00:01:24.603Z,20.40
2019-01-21T00:03:55.112Z,20.03
2019-01-21T00:06:25.620Z,20.50
2019-01-21T00:08:56.147Z,19.30
2019-01-21T00:11:26.566Z,19.97
2019-01-21T00:13:57.020Z,20.53
2019-01-21T00:16:27.442Z,20.10
2019-01-21T00:18:57.937Z,20.63
2019-01-21T00:21:28.354Z,20.50
2019-01-21T00:23:58.781Z,20.73
2019-01-21T00:26:29.275Z,20.57
2019-01-21T00:28:59.731Z,20.97
2019-01-21T00:31:30.122Z,20.97
2019-01-21T00:34:00.654Z,20.87
2019-01-21T00:36:31.091Z,20.57
2019-01-21T00:39:01.476Z,20.33
2019-01-21T00:41:31.910Z,19.57
2019-01-21T00:44:02.194Z,20.20
2019-01-21T00:46:51.742Z,20.07
2019-01-21T00:49:22.225Z,20.33
2019-01-21T00:51:52.653Z,20.57
2019-01-21T00:54:23.091Z,20.10
2019-01-21T00:56:53.523Z,21.50
2019-01-21T00:59:24.004Z,19.90
2019-01-21T01:01:54.433Z,20.10
2019-01-21T01:04:24.858Z,18.30
2019-01-21T01:06:55.293Z,18.93
2019-01-21T01:09:25.734Z,19.80
2019-01-21T01:11:56.213Z,20.07
2019-01-21T01:14:26.661Z,20.37
2019-01-21T01:16:57.216Z,19.40
2019-01-21T01:19:27.658Z,20.30
2019-01-21T01:21:58.115Z,21.03
2019-01-21T01:24:28.541Z,19.90
2019-01-21T01:26:59.020Z,20.73
2019-01-21T01:29:29.424Z,20.83
2019-01-21T01:31:59.915Z,20.00
2019-01-21T01:34:30.397Z,21.37
2019-01-21T01:37:00.840Z,20.83
2019-01-21T01:39:31.317Z,21.00
2019-01-21T01:42:01.773Z,21.27
2019-01-21T01:44:32.482Z,20.50
2019-01-21T01:47:02.917Z,20.63
2019-01-21T01:49:33.357Z,20.93
2019-01-21T01:52:03.818Z,20.90
2019-01-21T01:54:34.245Z,21.00
2019-01-21T01:57:05.094Z,21.17
2019-01-21T01:59:35.503Z,20.37
2019-01-21T02:02:06.038Z,20.83
2019-01-21T02:04:36.505Z,20.67
2019-01-21T02:07:07.167Z,21.10
2019-01-21T02:09:37.638Z,21.30
2019-01-21T02:12:08.070Z,19.83
2019-01-21T02:14:38.503Z,21.20
2019-01-21T02:17:08.983Z,19.60
2019-01-21T02:19:42.290Z,19.47
2019-01-21T02:22:15.195Z,20.13
2019-01-21T02:24:47.548Z,20.67
2019-01-21T02:27:54.883Z,19.13
2019-01-21T02:31:09.528Z,19.37
2019-01-21T02:34:30.664Z,18.93
2019-01-21T02:37:37.590Z,18.67
2019-01-21T02:40:39.475Z,19.67
2019-01-21T02:44:22.289Z,19.83
2019-01-21T02:48:07.562Z,19.73
2019-01-21T02:51:32.212Z,18.80
2019-01-21T02:54:48.363Z,18.00
2019-01-21T02:58:19.052Z,20.03
2019-01-21T03:01:36.517Z,19.80
2019-01-21T03:05:24.900Z,19.30
2019-01-21T03:08:30.737Z,19.30
2019-01-21T03:11:59.641Z,19.97
2019-01-21T03:15:31.701Z,19.50
2019-01-21T03:19:32.837Z,18.50
2019-01-21T03:22:54.545Z,18.50
2019-01-21T03:25:59.993Z,19.27
2019-01-21T03:29:10.224Z,19.60
2019-01-21T03:32:48.445Z,20.13
2019-01-21T03:35:56.304Z,18.57
2019-01-21T03:39:23.989Z,19.23
2019-01-21T03:42:33.870Z,19.33
2019-01-21T03:45:56.295Z,18.17
2019-01-21T03:48:51.288Z,19.17
2019-01-21T03:52:37.027Z,20.27
2019-01-21T03:55:13.590Z,19.73
2019-01-21T03:58:22.374Z,20.53
2019-01-21T04:01:21.328Z,18.57
2019-01-21T04:04:55.897Z,19.53
2019-01-21T04:08:15.355Z,19.27
2019-01-21T04:11:39.462Z,19.13
2019-01-21T04:15:07.928Z,18.97
2019-01-21T04:18:36.659Z,18.77
2019-01-21T04:21:54.727Z,18.90
2019-01-21T04:25:54.497Z,19.00
2019-01-21T04:29:09.129Z,18.67
2019-01-21T04:32:41.279Z,18.53
2019-01-21T04:35:40.796Z,18.07
2019-01-21T04:41:57.453Z,18.90
2019-01-21T04:45:21.834Z,18.77
2019-01-21T04:48:47.117Z,18.33
2019-01-21T04:52:13.070Z,18.13
2019-01-21T04:55:30.408Z,18.07
2019-01-21T04:59:09.489Z,17.80
2019-01-21T05:02:36.183Z,18.33
2019-01-21T05:05:51.561Z,18.17
2019-01-21T05:09:34.483Z,18.57
2019-01-21T05:13:03.471Z,17.90
2019-01-21T05:16:27.377Z,17.77
2019-01-21T05:19:52.664Z,18.03
2019-01-21T05:23:25.096Z,17.33
2019-01-21T05:26:34.952Z,18.10
2019-01-21T05:29:58.774Z,16.33
2019-01-21T05:33:24.190Z,17.03
2019-01-21T05:36:44.572Z,17.40
2019-01-21T05:40:06.792Z,17.70
2019-01-21T05:43:16.866Z,19.20
2019-01-21T05:46:32.122Z,18.30
2019-01-21T05:49:37.291Z,17.87
2019-01-21T05:53:17.125Z,18.13
2019-01-21T05:56:20.995Z,17.13
2019-01-21T06:00:02.029Z,18.10
2019-01-21T06:03:27.137Z,18.13
2019-01-21T06:06:41.922Z,16.87
2019-01-21T06:09:58.236Z,17.60
2019-01-21T06:13:27.430Z,17.03
2019-01-21T06:17:03.340Z,16.37
2019-01-21T06:20:25.026Z,17.77
2019-01-21T06:23:37.766Z,16.40
2019-01-21T06:27:13.241Z,17.07
2019-01-21T06:30:22.528Z,17.27
2019-01-21T06:34:01.862Z,16.77
2019-01-21T06:37:09.431Z,17.07
2019-01-21T06:40:53.780Z,17.17
2019-01-21T06:44:32.379Z,16.80
2019-01-21T06:48:17.423Z,17.77
2019-01-21T06:52:07.494Z,16.67
2019-01-21T06:55:18.237Z,15.87
2019-01-21T06:58:36.967Z,17.00
2019-01-21T07:01:50.167Z,16.73
2019-01-21T07:05:07.496Z,17.83
2019-01-21T07:08:37.943Z,17.80
2019-01-21T07:11:38.094Z,17.07
2019-01-21T07:14:54.872Z,17.80
2019-01-21T07:18:36.286Z,17.10
2019-01-21T07:21:40.951Z,18.00
2019-01-21T07:24:42.958Z,17.50
2019-01-21T07:27:58.589Z,17.50
2019-01-21T07:31:12.417Z,16.63
2019-01-21T07:34:48.149Z,17.11
2019-01-21T07:38:27.895Z,17.33
2019-01-21T07:41:30.242Z,16.60
2019-01-21T07:44:54.896Z,16.87
2019-01-21T07:48:48.292Z,16.47
2019-01-21T07:51:55.595Z,16.03
2019-01-21T07:55:38.558Z,16.30
2019-01-21T07:59:27.797Z,17.97
2019-01-21T08:02:51.493Z,18.23
2019-01-21T08:06:03.556Z,18.13
2019-01-21T08:09:42.576Z,20.03
2019-01-21T08:12:54.365Z,19.27
2019-01-21T08:16:06.954Z,17.70
2019-01-21T08:19:35.547Z,19.73
2019-01-21T08:22:54.985Z,19.73
2019-01-21T08:26:15.461Z,19.50
2019-01-21T08:30:07.152Z,18.17
2019-01-21T08:33:21.312Z,18.50
2019-01-21T08:36:27.965Z,18.03
2019-01-21T08:40:04.830Z,17.70
2019-01-21T08:43:48.801Z,18.63
2019-01-21T08:47:28.490Z,18.23
2019-01-21T08:50:50.600Z,17.93
2019-01-21T08:53:58.975Z,15.87
2019-01-21T08:57:11.692Z,17.47
2019-01-21T09:00:26.823Z,16.37
2019-01-21T09:04:01.972Z,16.70
2019-01-21T09:07:25.703Z,16.60
2019-01-21T09:10:52.626Z,16.93
2019-01-21T09:14:07.666Z,17.30
2019-01-21T09:17:16.545Z,16.53
2019-01-21T09:20:36.808Z,16.47
2019-01-21T09:24:11.474Z,14.83
2019-01-21T09:27:24.657Z,14.87
2019-01-21T09:30:52.133Z,15.27
2019-01-21T09:34:21.253Z,16.87
2019-01-21T09:38:01.004Z,15.73
2019-01-21T09:41:08.268Z,16.33
2019-01-21T09:44:29.151Z,15.83
2019-01-21T09:46:57.188Z,16.60
2019-01-21T09:49:25.155Z,16.80
2019-01-21T09:52:18.408Z,17.37
2019-01-21T09:54:50.034Z,16.90
2019-01-21T09:57:27.833Z,17.17
2019-01-21T10:00:04.857Z,17.00
2019-01-21T10:02:51.908Z,17.10
2019-01-21T10:05:25.200Z,16.97
2019-01-21T10:08:30.427Z,17.43
2019-01-21T10:12:03.500Z,17.93
2019-01-21T10:15:08.808Z,16.20
2019-01-21T10:18:17.084Z,16.57
2019-01-21T10:22:00.344Z,16.73
2019-01-21T10:25:26.564Z,16.80
2019-01-21T10:29:07.921Z,16.57
2019-01-21T10:32:38.755Z,16.73
2019-01-21T10:35:51.296Z,16.60
2019-01-21T10:39:19.228Z,15.87
2019-01-21T10:42:45.418Z,15.63
2019-01-21T10:46:31.243Z,15.77
2019-01-21T10:50:00.628Z,14.27
2019-01-21T10:53:39.452Z,14.73
2019-01-21T10:57:09.985Z,13.33
2019-01-21T11:00:30.833Z,14.57
2019-01-21T11:04:03.839Z,15.30
2019-01-21T11:07:27.576Z,14.87
2019-01-21T11:10:40.656Z,14.67
2019-01-21T11:14:16.327Z,14.63
2019-01-21T11:17:23.337Z,14.83
2019-01-21T11:20:38.264Z,15.60
2019-01-21T11:23:55.607Z,16.47
2019-01-21T11:27:34.377Z,16.93
2019-01-21T11:30:53.470Z,17.27
2019-01-21T11:34:19.248Z,16.47
2019-01-21T11:38:08.440Z,17.50
2019-01-21T11:41:16.362Z,15.67
2019-01-21T11:44:36.170Z,15.93
2019-01-21T11:47:46.865Z,15.90
2019-01-21T11:51:22.148Z,15.97
2019-01-21T11:54:33.969Z,15.33
2019-01-21T11:58:04.657Z,16.07
2019-01-21T12:01:26.169Z,16.57
2019-01-21T12:04:35.051Z,14.93
2019-01-21T12:07:52.609Z,14.93
2019-01-21T12:11:18.399Z,14.93
2019-01-21T12:14:52.070Z,15.63
2019-01-21T12:18:25.440Z,14.90
2019-01-21T12:21:38.975Z,16.10
2019-01-21T12:24:53.031Z,15.10
2019-01-21T12:28:40.052Z,15.50
2019-01-21T12:31:38.638Z,15.03
2019-01-21T12:35:06.347Z,15.23
2019-01-21T12:38:11.085Z,16.63
2019-01-21T12:41:37.712Z,14.73
2019-01-21T12:44:42.367Z,15.40
2019-01-21T12:47:50.138Z,15.30
2019-01-21T12:51:05.292Z,14.40
2019-01-21T12:54:38.086Z,14.87
2019-01-21T12:58:08.464Z,13.90
2019-01-21T13:01:23.600Z,14.30
2019-01-21T13:04:55.231Z,13.67
2019-01-21T13:08:16.003Z,13.70
2019-01-21T13:11:32.992Z,13.57
2019-01-21T13:14:50.307Z,13.50
2019-01-21T13:18:19.408Z,14.00
2019-01-21T13:21:53.954Z,13.27
2019-01-21T13:25:41.408Z,12.53
2019-01-21T13:29:01.052Z,12.87
2019-01-21T13:32:42.361Z,12.07
2019-01-21T13:35:52.189Z,12.53
2019-01-21T13:39:47.518Z,13.07
2019-01-21T13:42:46.830Z,11.17
2019-01-21T13:46:09.556Z,11.90
2019-01-21T13:49:19.843Z,11.07
2019-01-21T13:53:01.783Z,11.60
2019-01-21T13:56:00.534Z,11.60
2019-01-21T13:59:30.595Z,11.33
2019-01-21T14:02:23.459Z,12.20
2019-01-21T14:05:22.008Z,11.80
2019-01-21T14:08:44.853Z,12.23
2019-01-21T14:12:09.091Z,11.67
2019-01-21T14:15:32.457Z,12.00
2019-01-21T14:18:27.620Z,11.33
2019-01-21T14:21:28.587Z,12.33
2019-01-21T14:25:04.503Z,11.47
2019-01-21T14:28:00.004Z,11.77
2019-01-21T14:31:34.961Z,13.20
2019-01-21T14:35:05.651Z,12.47
2019-01-21T14:38:17.946Z,12.07
2019-01-21T14:42:06.857Z,12.57
2019-01-21T14:45:42.075Z,12.63
2019-01-21T14:49:21.634Z,12.47
2019-01-21T14:52:50.045Z,12.27
2019-01-21T14:56:10.996Z,11.97
2019-01-21T14:59:38.362Z,12.50
2019-01-21T15:03:22.392Z,13.03
2019-01-21T15:06:29.517Z,12.57
2019-01-21T15:09:46.337Z,12.67
2019-01-21T15:13:05.198Z,12.03
2019-01-21T15:16:07.736Z,10.57
2019-01-21T15:19:07.681Z,10.77
2019-01-21T15:22:27.508Z,10.93
2019-01-21T15:26:05.455Z,9.90
2019-01-21T15:29:22.446Z,10.20
2019-01-21T15:32:43.142Z,9.80
2019-01-21T15:35:50.451Z,11.47
2019-01-21T15:39:27.625Z,10.27
2019-01-21T15:43:08.096Z,9.93
2019-01-21T15:46:25.350Z,10.07
2019-01-21T15:49:34.490Z,10.43
2019-01-21T15:52:38.089Z,10.20
2019-01-21T15:55:27.142Z,9.53
2019-01-21T15:58:48.880Z,10.67
2019-01-21T16:02:24.756Z,11.03
2019-01-21T16:05:31.303Z,10.80
2019-01-21T16:08:32.499Z,11.63
2019-01-21T16:12:08.168Z,11.23
2019-01-21T16:15:49.553Z,11.40
2019-01-21T16:18:52.868Z,11.83
2019-01-21T16:22:19.693Z,11.50
2019-01-21T16:25:51.540Z,11.97
2019-01-21T16:29:17.176Z,12.73
2019-01-21T16:32:30.846Z,12.13
2019-01-21T16:35:46.195Z,11.80
2019-01-21T16:39:02.401Z,11.87
2019-01-21T16:42:08.655Z,11.67
2019-01-21T16:44:39.191Z,12.17
2019-01-21T16:47:09.664Z,12.07
2019-01-21T16:49:40.191Z,12.50
2019-01-21T16:52:10.677Z,11.43
2019-01-21T16:54:41.320Z,11.43
2019-01-21T16:57:11.942Z,11.93
2019-01-21T16:59:42.442Z,11.57
2019-01-21T17:02:12.933Z,11.70
2019-01-21T17:04:43.499Z,11.57
2019-01-21T17:07:14.159Z,11.30
2019-01-21T17:09:44.680Z,11.70
2019-01-21T17:12:15.236Z,11.93
2019-01-21T17:14:45.822Z,11.33
2019-01-21T17:17:16.326Z,12.33
2019-01-21T17:19:47.165Z,11.83
2019-01-21T17:22:17.648Z,12.40
2019-01-21T17:24:48.237Z,11.90
2019-01-21T17:27:18.835Z,11.73
2019-01-21T17:29:49.372Z,12.80
2019-01-21T17:32:19.971Z,12.47
2019-01-21T17:34:50.504Z,13.53
2019-01-21T17:37:21.045Z,12.50
2019-01-21T17:39:51.645Z,13.13
2019-01-21T17:42:22.140Z,13.73
2019-01-21T17:44:55.132Z,13.87
2019-01-21T17:47:25.586Z,15.03
2019-01-21T17:49:56.189Z,16.13
2019-01-21T17:52:28.900Z,16.87
2019-01-21T17:54:59.368Z,16.70
2019-01-21T17:57:30.323Z,17.37
2019-01-21T18:00:01.083Z,18.43
2019-01-21T18:02:31.574Z,17.67
2019-01-21T18:05:02.144Z,16.77
2019-01-21T18:07:32.685Z,17.93
2019-01-21T18:10:03.191Z,17.20
2019-01-21T18:12:33.913Z,17.40
2019-01-21T18:15:05.152Z,18.37
2019-01-21T18:17:35.634Z,18.40
2019-01-21T18:20:13.095Z,17.27
2019-01-21T18:22:43.527Z,17.77
2019-01-21T18:25:14.514Z,17.23
2019-01-21T18:27:44.985Z,17.10
2019-01-21T18:30:23.309Z,17.67
2019-01-21T18:32:53.782Z,18.17
2019-01-21T18:35:24.379Z,17.03
2019-01-21T18:37:55.233Z,17.97
2019-01-21T18:40:25.799Z,17.73
2019-01-21T18:42:56.373Z,19.13
2019-01-21T18:45:28.697Z,19.70
2019-01-21T18:47:59.195Z,18.33
2019-01-21T18:50:29.692Z,19.13
2019-01-21T18:53:00.228Z,18.17
2019-01-21T18:55:30.721Z,17.93
2019-01-21T18:58:01.190Z,18.43
2019-01-21T19:00:32.189Z,19.17
2019-01-21T19:03:02.734Z,18.57
2019-01-21T19:05:33.238Z,18.70
2019-01-21T19:08:03.845Z,19.13
2019-01-21T19:10:34.547Z,18.33
2019-01-21T19:13:05.082Z,17.83
2019-01-21T19:15:35.623Z,19.17
2019-01-21T19:18:06.750Z,18.60
2019-01-21T19:20:37.267Z,18.57
2019-01-21T19:23:07.775Z,17.50
2019-01-21T19:25:38.344Z,17.33
2019-01-21T19:28:08.826Z,17.60
2019-01-21T19:30:39.516Z,17.37
2019-01-21T19:33:10.017Z,17.13
2019-01-21T19:35:48.142Z,17.83
2019-01-21T19:38:18.575Z,17.80
2019-01-21T19:40:51.210Z,18.20
2019-01-21T19:43:24.513Z,17.30
2019-01-21T19:45:57.336Z,18.03
2019-01-21T19:48:28.360Z,17.63
2019-01-21T19:50:59.123Z,16.87
2019-01-21T19:53:29.865Z,16.40
2019-01-21T19:56:00.442Z,17.33
2019-01-21T19:58:30.904Z,17.50
2019-01-21T20:01:01.383Z,16.83
2019-01-21T20:03:31.894Z,17.97
2019-01-21T20:06:02.610Z,17.50
2019-01-21T20:08:33.163Z,17.57
2019-01-21T20:11:03.621Z,18.37
2019-01-21T20:13:34.068Z,17.30
2019-01-21T20:16:04.639Z,17.03
2019-01-21T20:18:35.116Z,17.97
2019-01-21T20:21:05.630Z,17.50
2019-01-21T20:23:36.080Z,17.60
2019-01-21T20:26:06.523Z,17.73
2019-01-21T20:28:37.023Z,18.87
2019-01-21T20:31:07.558Z,18.23
2019-01-21T20:33:38.022Z,17.63
2019-01-21T20:36:08.563Z,17.73
2019-01-21T20:38:39.053Z,18.43
2019-01-21T20:41:09.539Z,17.63
2019-01-21T20:43:39.971Z,18.90
2019-01-21T20:46:10.479Z,18.53
2019-01-21T20:48:40.901Z,24.50
2019-01-21T20:51:11.442Z,23.20
2019-01-21T20:53:41.847Z,21.17
2019-01-21T20:56:12.300Z,20.23
2019-01-21T20:58:42.863Z,19.37
2019-01-21T21:01:13.336Z,20.10
2019-01-21T21:03:43.800Z,19.20
2019-01-21T21:06:14.493Z,20.23
2019-01-21T21:08:44.986Z,20.43
2019-01-21T21:11:15.574Z,20.53
2019-01-21T21:13:46.044Z,19.63
2019-01-21T21:16:16.574Z,18.93
2019-01-21T21:18:47.067Z,19.73
2019-01-21T21:21:17.615Z,19.17
2019-01-21T21:23:48.134Z,20.70
2019-01-21T21:26:18.750Z,19.13
2019-01-21T21:28:49.201Z,19.60
2019-01-21T21:31:19.913Z,20.30
2019-01-21T21:33:50.513Z,19.73
2019-01-21T21:36:21.022Z,18.50
2019-01-21T21:38:51.650Z,18.10
2019-01-21T21:41:22.127Z,19.20
2019-01-21T21:43:52.698Z,17.60
2019-01-21T21:46:23.228Z,19.03
2019-01-21T21:48:53.725Z,18.93
2019-01-21T21:51:24.210Z,20.23
2019-01-21T21:53:54.667Z,19.27
2019-01-21T21:56:25.152Z,18.37
2019-01-21T21:58:55.645Z,18.43
2019-01-21T22:01:26.129Z,18.60
2019-01-21T22:03:56.651Z,18.27
2019-01-21T22:06:27.127Z,19.73
2019-01-21T22:08:57.612Z,19.67
2019-01-21T22:11:28.092Z,19.23
2019-01-21T22:13:58.731Z,18.67
2019-01-21T22:16:29.204Z,18.57
2019-01-21T22:18:59.689Z,18.33
2019-01-21T22:21:30.166Z,18.20
2019-01-21T22:24:00.604Z,18.37
2019-01-21T22:26:31.175Z,17.77
2019-01-21T22:29:01.637Z,17.47
2019-01-21T22:31:32.124Z,18.70
2019-01-21T22:34:02.758Z,17.53
2019-01-21T22:36:33.280Z,18.37
2019-01-21T22:39:05.597Z,18.40
2019-01-21T22:41:36.056Z,17.50
2019-01-21T22:44:06.496Z,18.17
2019-01-21T22:46:36.979Z,18.20
2019-01-21T22:49:07.686Z,18.77
2019-01-21T22:51:38.130Z,18.57
2019-01-21T22:54:08.532Z,18.57
2019-01-21T22:56:38.976Z,18.27
2019-01-21T22:59:09.457Z,17.63
2019-01-21T23:01:39.988Z,19.13
2019-01-21T23:04:10.856Z,17.70
2019-01-21T23:06:41.304Z,18.10
2019-01-21T23:09:11.860Z,17.73
2019-01-21T23:11:42.280Z,17.80
2019-01-21T23:14:12.751Z,17.90
2019-01-21T23:16:43.211Z,18.40
2019-01-21T23:19:13.717Z,17.93
2019-01-21T23:21:44.125Z,17.23
2019-01-21T23:24:16.704Z,18.37
2019-01-21T23:26:47.180Z,17.77
2019-01-21T23:29:17.698Z,17.77
2019-01-21T23:31:48.110Z,17.40
2019-01-21T23:34:18.614Z,17.77
2019-01-21T23:36:49.357Z,17.57
2019-01-21T23:39:19.795Z,17.90
2019-01-21T23:41:50.261Z,17.63
2019-01-21T23:44:20.731Z,17.73
2019-01-21T23:46:51.149Z,18.00
2019-01-21T23:49:21.644Z,18.27
2019-01-21T23:51:52.048Z,17.77
2019-01-21T23:54:22.509Z,17.17
2019-01-21T23:56:53.005Z,17.07
2019-01-21T23:59:23.566Z,17.13
